sensor_id;sensor_type;location;lat;lon;timestamp;temperature;humidity
52387;DHT22;38317;53.084;6.960;2023-02-01T00:01:09;6.00;99.90
52387;DHT22;38317;53.084;6.960;2023-02-01T00:03:35;6.00;99.90
52387;DHT22;38317;53.084;6.960;2023-02-01T00:06:01;6.00;99.90
52387;DHT22;38317;53.084;6.960;2023-02-01T00:08:27;6.00;99.90
52387;DHT22;38317;53.084;6.960;2023-02-01T00:11:06;6.00;99.90
52387;DHT22;38317;53.084;6.960;2023-02-01T00:13:33;6.00;99.90
52387;DHT22;38317;53.084;6.960;2023-02-01T00:16:13;6.00;99.90
52387;DHT22;38317;53.084;6.960;2023-02-01T00:18:42;6.10;99.90
52387;DHT22;38317;53.084;6.960;2023-02-01T00:21:09;6.00;99.90
52387;DHT22;38317;53.084;6.960;2023-02-01T00:23:36;6.10;99.90
52387;DHT22;38317;53.084;6.960;2023-02-01T00:26:07;6.10;99.90
52387;DHT22;38317;53.084;6.960;2023-02-01T00:28:36;6.10;99.90
52387;DHT22;38317;53.084;6.960;2023-02-01T00:31:03;6.10;99.90
52387;DHT22;38317;53.084;6.960;2023-02-01T00:33:30;6.10;99.90
52387;DHT22;38317;53.084;6.960;2023-02-01T00:36:05;6.10;99.90
52387;DHT22;38317;53.084;6.960;2023-02-01T00:38:32;6.10;99.90
52387;DHT22;38317;53.084;6.960;2023-02-01T00:41:04;6.10;99.90
52387;DHT22;38317;53.084;6.960;2023-02-01T00:43:34;6.10;99.90
52387;DHT22;38317;53.084;6.960;2023-02-01T00:46:00;6.10;99.90
52387;DHT22;38317;53.084;6.960;2023-02-01T00:48:26;6.10;99.90
52387;DHT22;38317;53.084;6.960;2023-02-01T00:50:53;6.10;99.90
52387;DHT22;38317;53.084;6.960;2023-02-01T00:53:20;6.20;99.90
52387;DHT22;38317;53.084;6.960;2023-02-01T00:55:49;6.20;99.90
52387;DHT22;38317;53.084;6.960;2023-02-01T00:58:15;6.20;99.90
52387;DHT22;38317;53.084;6.960;2023-02-01T01:00:43;6.20;99.90
52387;DHT22;38317;53.084;6.960;2023-02-01T01:03:08;6.20;99.90
52387;DHT22;38317;53.084;6.960;2023-02-01T01:05:47;6.20;99.90
52387;DHT22;38317;53.084;6.960;2023-02-01T01:08:15;6.20;99.90
52387;DHT22;38317;53.084;6.960;2023-02-01T01:11:03;6.20;99.90
52387;DHT22;38317;53.084;6.960;2023-02-01T01:13:29;6.20;99.90
52387;DHT22;38317;53.084;6.960;2023-02-01T01:15:55;6.20;99.90
52387;DHT22;38317;53.084;6.960;2023-02-01T01:18:21;6.20;99.90
52387;DHT22;38317;53.084;6.960;2023-02-01T01:20:47;6.20;99.90
52387;DHT22;38317;53.084;6.960;2023-02-01T01:23:13;6.20;99.90
52387;DHT22;38317;53.084;6.960;2023-02-01T01:25:39;6.20;99.90
52387;DHT22;38317;53.084;6.960;2023-02-01T01:28:06;6.10;99.90
52387;DHT22;38317;53.084;6.960;2023-02-01T01:30:33;6.10;99.90
52387;DHT22;38317;53.084;6.960;2023-02-01T01:32:58;6.20;99.90
52387;DHT22;38317;53.084;6.960;2023-02-01T01:35:24;6.20;99.90
52387;DHT22;38317;53.084;6.960;2023-02-01T01:37:50;6.20;99.90
52387;DHT22;38317;53.084;6.960;2023-02-01T01:40:16;6.20;99.90
52387;DHT22;38317;53.084;6.960;2023-02-01T01:42:43;6.20;99.90
52387;DHT22;38317;53.084;6.960;2023-02-01T01:45:33;6.20;99.90
52387;DHT22;38317;53.084;6.960;2023-02-01T01:48:16;6.20;99.90
52387;DHT22;38317;53.084;6.960;2023-02-01T01:50:50;6.20;99.90
52387;DHT22;38317;53.084;6.960;2023-02-01T01:53:23;6.20;99.90
52387;DHT22;38317;53.084;6.960;2023-02-01T01:55:52;6.20;99.90
52387;DHT22;38317;53.084;6.960;2023-02-01T01:58:21;6.20;99.90
52387;DHT22;38317;53.084;6.960;2023-02-01T02:00:48;6.20;99.90
52387;DHT22;38317;53.084;6.960;2023-02-01T02:03:32;6.20;99.90
52387;DHT22;38317;53.084;6.960;2023-02-01T02:06:01;6.30;99.90
52387;DHT22;38317;53.084;6.960;2023-02-01T02:08:28;6.20;99.90
52387;DHT22;38317;53.084;6.960;2023-02-01T02:10:54;6.20;99.90
52387;DHT22;38317;53.084;6.960;2023-02-01T02:13:33;6.20;99.90
52387;DHT22;38317;53.084;6.960;2023-02-01T02:16:15;6.20;99.90
52387;DHT22;38317;53.084;6.960;2023-02-01T02:34:51;6.00;99.90
52387;DHT22;38317;53.084;6.960;2023-02-01T02:37:26;5.90;99.90
52387;DHT22;38317;53.084;6.960;2023-02-01T02:42:52;5.90;99.90
52387;DHT22;38317;53.084;6.960;2023-02-01T02:45:49;5.90;99.90
52387;DHT22;38317;53.084;6.960;2023-02-01T02:51:52;5.90;99.90
52387;DHT22;38317;53.084;6.960;2023-02-01T02:54:43;5.80;99.90
52387;DHT22;38317;53.084;6.960;2023-02-01T02:57:41;5.80;99.90
52387;DHT22;38317;53.084;6.960;2023-02-01T03:00:32;5.80;99.90
52387;DHT22;38317;53.084;6.960;2023-02-01T03:03:17;5.80;99.90
52387;DHT22;38317;53.084;6.960;2023-02-01T03:06:02;5.70;99.90
52387;DHT22;38317;53.084;6.960;2023-02-01T03:08:30;5.60;99.90
52387;DHT22;38317;53.084;6.960;2023-02-01T03:16:43;5.70;99.90
52387;DHT22;38317;53.084;6.960;2023-02-01T03:22:05;5.70;99.90
52387;DHT22;38317;53.084;6.960;2023-02-01T03:24:40;5.80;99.90
52387;DHT22;38317;53.084;6.960;2023-02-01T03:27:52;5.80;99.90
52387;DHT22;38317;53.084;6.960;2023-02-01T03:30:33;5.80;99.90
52387;DHT22;38317;53.084;6.960;2023-02-01T03:33:03;5.80;99.90
52387;DHT22;38317;53.084;6.960;2023-02-01T03:38:32;5.80;99.90
52387;DHT22;38317;53.084;6.960;2023-02-01T03:46:46;5.80;99.90
52387;DHT22;38317;53.084;6.960;2023-02-01T03:49:34;5.90;99.90
52387;DHT22;38317;53.084;6.960;2023-02-01T03:52:00;5.90;99.90
52387;DHT22;38317;53.084;6.960;2023-02-01T03:54:30;5.90;99.90
52387;DHT22;38317;53.084;6.960;2023-02-01T03:57:00;5.90;99.90
52387;DHT22;38317;53.084;6.960;2023-02-01T03:59:27;5.90;99.90
52387;DHT22;38317;53.084;6.960;2023-02-01T04:01:53;6.00;99.90
52387;DHT22;38317;53.084;6.960;2023-02-01T04:04:19;5.90;99.90
52387;DHT22;38317;53.084;6.960;2023-02-01T04:06:50;5.90;99.90
52387;DHT22;38317;53.084;6.960;2023-02-01T04:09:16;5.90;99.90
52387;DHT22;38317;53.084;6.960;2023-02-01T04:11:43;5.90;99.90
52387;DHT22;38317;53.084;6.960;2023-02-01T04:14:09;5.90;99.90
52387;DHT22;38317;53.084;6.960;2023-02-01T04:16:34;5.90;99.90
52387;DHT22;38317;53.084;6.960;2023-02-01T04:19:00;5.90;99.90
52387;DHT22;38317;53.084;6.960;2023-02-01T04:21:26;5.90;99.90
52387;DHT22;38317;53.084;6.960;2023-02-01T04:23:52;5.80;99.90
52387;DHT22;38317;53.084;6.960;2023-02-01T04:26:19;5.80;99.90
52387;DHT22;38317;53.084;6.960;2023-02-01T04:28:45;5.80;99.90
52387;DHT22;38317;53.084;6.960;2023-02-01T04:31:17;5.80;99.90
52387;DHT22;38317;53.084;6.960;2023-02-01T04:33:43;5.80;99.90
52387;DHT22;38317;53.084;6.960;2023-02-01T04:36:09;5.90;99.90
52387;DHT22;38317;53.084;6.960;2023-02-01T04:38:35;5.90;99.90
52387;DHT22;38317;53.084;6.960;2023-02-01T04:41:01;5.90;99.90
52387;DHT22;38317;53.084;6.960;2023-02-01T04:43:27;5.90;99.90
52387;DHT22;38317;53.084;6.960;2023-02-01T04:45:52;5.90;99.90
52387;DHT22;38317;53.084;6.960;2023-02-01T04:48:20;5.90;99.90
52387;DHT22;38317;53.084;6.960;2023-02-01T04:50:48;5.90;99.90
52387;DHT22;38317;53.084;6.960;2023-02-01T04:53:14;6.00;99.90
52387;DHT22;38317;53.084;6.960;2023-02-01T04:55:41;6.00;99.90
52387;DHT22;38317;53.084;6.960;2023-02-01T04:58:07;6.10;99.90
52387;DHT22;38317;53.084;6.960;2023-02-01T05:00:32;6.10;99.90
52387;DHT22;38317;53.084;6.960;2023-02-01T05:02:58;6.10;99.90
52387;DHT22;38317;53.084;6.960;2023-02-01T05:05:24;6.10;99.90
52387;DHT22;38317;53.084;6.960;2023-02-01T05:07:50;6.10;99.90
52387;DHT22;38317;53.084;6.960;2023-02-01T05:10:16;6.10;99.90
52387;DHT22;38317;53.084;6.960;2023-02-01T05:12:43;6.10;99.90
52387;DHT22;38317;53.084;6.960;2023-02-01T05:15:29;6.20;99.90
52387;DHT22;38317;53.084;6.960;2023-02-01T05:17:55;6.20;99.90
52387;DHT22;38317;53.084;6.960;2023-02-01T05:20:20;6.20;99.90
52387;DHT22;38317;53.084;6.960;2023-02-01T05:22:46;6.20;99.90
52387;DHT22;38317;53.084;6.960;2023-02-01T05:25:12;6.20;99.90
52387;DHT22;38317;53.084;6.960;2023-02-01T05:27:37;6.20;99.90
52387;DHT22;38317;53.084;6.960;2023-02-01T05:30:05;6.20;99.90
52387;DHT22;38317;53.084;6.960;2023-02-01T05:32:31;6.20;99.90
52387;DHT22;38317;53.084;6.960;2023-02-01T05:34:57;6.20;99.90
52387;DHT22;38317;53.084;6.960;2023-02-01T05:37:23;6.20;99.90
52387;DHT22;38317;53.084;6.960;2023-02-01T05:39:48;6.20;99.90
52387;DHT22;38317;53.084;6.960;2023-02-01T05:42:14;6.10;99.90
52387;DHT22;38317;53.084;6.960;2023-02-01T05:44:40;6.20;99.90
52387;DHT22;38317;53.084;6.960;2023-02-01T05:47:06;6.10;99.90
52387;DHT22;38317;53.084;6.960;2023-02-01T05:49:32;6.20;99.90
52387;DHT22;38317;53.084;6.960;2023-02-01T05:51:58;6.10;99.90
52387;DHT22;38317;53.084;6.960;2023-02-01T05:54:24;6.10;99.90
52387;DHT22;38317;53.084;6.960;2023-02-01T05:56:49;6.10;99.90
52387;DHT22;38317;53.084;6.960;2023-02-01T05:59:15;6.10;99.90
52387;DHT22;38317;53.084;6.960;2023-02-01T06:01:41;6.10;99.90
52387;DHT22;38317;53.084;6.960;2023-02-01T06:04:06;6.10;99.90
52387;DHT22;38317;53.084;6.960;2023-02-01T06:06:32;6.20;99.90
52387;DHT22;38317;53.084;6.960;2023-02-01T06:08:58;6.20;99.90
52387;DHT22;38317;53.084;6.960;2023-02-01T06:11:26;6.20;99.90
52387;DHT22;38317;53.084;6.960;2023-02-01T06:13:52;6.20;99.90
52387;DHT22;38317;53.084;6.960;2023-02-01T06:16:17;6.20;99.90
52387;DHT22;38317;53.084;6.960;2023-02-01T06:18:43;6.20;99.90
52387;DHT22;38317;53.084;6.960;2023-02-01T06:21:09;6.20;99.90
52387;DHT22;38317;53.084;6.960;2023-02-01T06:23:35;6.20;99.90
52387;DHT22;38317;53.084;6.960;2023-02-01T06:26:05;6.20;99.90
52387;DHT22;38317;53.084;6.960;2023-02-01T06:28:33;6.10;99.90
52387;DHT22;38317;53.084;6.960;2023-02-01T06:31:04;6.20;99.90
52387;DHT22;38317;53.084;6.960;2023-02-01T06:33:35;6.10;99.90
52387;DHT22;38317;53.084;6.960;2023-02-01T06:36:03;6.10;99.90
52387;DHT22;38317;53.084;6.960;2023-02-01T06:38:29;6.10;99.90
52387;DHT22;38317;53.084;6.960;2023-02-01T06:40:56;6.20;99.90
52387;DHT22;38317;53.084;6.960;2023-02-01T06:43:24;6.20;99.90
52387;DHT22;38317;53.084;6.960;2023-02-01T06:45:51;6.20;99.90
52387;DHT22;38317;53.084;6.960;2023-02-01T06:48:17;6.30;99.90
52387;DHT22;38317;53.084;6.960;2023-02-01T06:50:43;6.20;99.90
52387;DHT22;38317;53.084;6.960;2023-02-01T06:53:09;6.20;99.90
52387;DHT22;38317;53.084;6.960;2023-02-01T06:55:35;6.20;99.90
52387;DHT22;38317;53.084;6.960;2023-02-01T06:58:00;6.20;99.90
52387;DHT22;38317;53.084;6.960;2023-02-01T07:00:28;6.20;99.90
52387;DHT22;38317;53.084;6.960;2023-02-01T07:02:54;6.20;99.90
52387;DHT22;38317;53.084;6.960;2023-02-01T07:05:20;6.20;99.90
52387;DHT22;38317;53.084;6.960;2023-02-01T07:07:46;6.20;99.90
52387;DHT22;38317;53.084;6.960;2023-02-01T07:10:12;6.30;99.90
52387;DHT22;38317;53.084;6.960;2023-02-01T07:12:38;6.30;99.90
52387;DHT22;38317;53.084;6.960;2023-02-01T07:15:05;6.30;99.90
52387;DHT22;38317;53.084;6.960;2023-02-01T07:17:31;6.30;99.90
52387;DHT22;38317;53.084;6.960;2023-02-01T07:19:57;6.20;99.90
52387;DHT22;38317;53.084;6.960;2023-02-01T07:22:25;6.30;99.90
52387;DHT22;38317;53.084;6.960;2023-02-01T07:24:51;6.30;99.90
52387;DHT22;38317;53.084;6.960;2023-02-01T07:27:17;6.30;99.90
52387;DHT22;38317;53.084;6.960;2023-02-01T07:29:43;6.20;99.90
52387;DHT22;38317;53.084;6.960;2023-02-01T07:32:09;6.20;99.90
52387;DHT22;38317;53.084;6.960;2023-02-01T07:34:34;6.30;99.90
52387;DHT22;38317;53.084;6.960;2023-02-01T07:37:00;6.30;99.90
52387;DHT22;38317;53.084;6.960;2023-02-01T07:39:26;6.30;99.90
52387;DHT22;38317;53.084;6.960;2023-02-01T07:41:53;6.30;99.90
52387;DHT22;38317;53.084;6.960;2023-02-01T07:44:19;6.30;99.90
52387;DHT22;38317;53.084;6.960;2023-02-01T07:46:49;6.30;99.90
52387;DHT22;38317;53.084;6.960;2023-02-01T07:49:14;6.30;99.90
52387;DHT22;38317;53.084;6.960;2023-02-01T07:51:40;6.30;99.90
52387;DHT22;38317;53.084;6.960;2023-02-01T07:54:06;6.30;99.90
52387;DHT22;38317;53.084;6.960;2023-02-01T07:56:32;6.30;99.90
52387;DHT22;38317;53.084;6.960;2023-02-01T07:58:58;6.30;99.90
52387;DHT22;38317;53.084;6.960;2023-02-01T08:01:27;6.30;99.90
52387;DHT22;38317;53.084;6.960;2023-02-01T08:03:55;6.40;99.90
52387;DHT22;38317;53.084;6.960;2023-02-01T08:06:22;6.30;99.90
52387;DHT22;38317;53.084;6.960;2023-02-01T08:08:49;6.40;99.90
52387;DHT22;38317;53.084;6.960;2023-02-01T08:11:16;6.40;99.90
52387;DHT22;38317;53.084;6.960;2023-02-01T08:13:42;6.40;99.90
52387;DHT22;38317;53.084;6.960;2023-02-01T08:16:10;6.40;99.90
52387;DHT22;38317;53.084;6.960;2023-02-01T08:18:37;6.40;99.90
52387;DHT22;38317;53.084;6.960;2023-02-01T08:23:38;6.40;99.90
52387;DHT22;38317;53.084;6.960;2023-02-01T08:26:18;6.40;99.90
52387;DHT22;38317;53.084;6.960;2023-02-01T08:28:48;6.40;99.90
52387;DHT22;38317;53.084;6.960;2023-02-01T08:31:17;6.40;99.90
52387;DHT22;38317;53.084;6.960;2023-02-01T08:33:47;6.40;99.90
52387;DHT22;38317;53.084;6.960;2023-02-01T08:36:13;6.40;99.90
52387;DHT22;38317;53.084;6.960;2023-02-01T08:38:39;6.50;99.90
52387;DHT22;38317;53.084;6.960;2023-02-01T08:41:07;6.40;99.90
52387;DHT22;38317;53.084;6.960;2023-02-01T08:43:33;6.50;99.90
52387;DHT22;38317;53.084;6.960;2023-02-01T08:45:59;6.50;99.90
52387;DHT22;38317;53.084;6.960;2023-02-01T08:48:24;6.50;99.90
52387;DHT22;38317;53.084;6.960;2023-02-01T08:50:50;6.50;99.90
52387;DHT22;38317;53.084;6.960;2023-02-01T08:53:16;6.50;99.90
52387;DHT22;38317;53.084;6.960;2023-02-01T08:55:42;6.50;99.90
52387;DHT22;38317;53.084;6.960;2023-02-01T08:58:07;6.50;99.90
52387;DHT22;38317;53.084;6.960;2023-02-01T09:00:34;6.50;99.90
52387;DHT22;38317;53.084;6.960;2023-02-01T09:03:03;6.40;99.90
52387;DHT22;38317;53.084;6.960;2023-02-01T09:05:28;5.20;99.90
52387;DHT22;38317;53.084;6.960;2023-02-01T09:07:54;6.50;99.90
52387;DHT22;38317;53.084;6.960;2023-02-01T09:10:20;6.50;99.90
52387;DHT22;38317;53.084;6.960;2023-02-01T09:12:46;6.50;99.90
52387;DHT22;38317;53.084;6.960;2023-02-01T09:15:11;6.50;99.90
52387;DHT22;38317;53.084;6.960;2023-02-01T09:17:37;6.50;99.90
52387;DHT22;38317;53.084;6.960;2023-02-01T09:20:03;6.50;99.90
52387;DHT22;38317;53.084;6.960;2023-02-01T09:22:29;6.50;99.90
52387;DHT22;38317;53.084;6.960;2023-02-01T09:24:55;6.50;99.90
52387;DHT22;38317;53.084;6.960;2023-02-01T09:27:21;6.50;99.90
52387;DHT22;38317;53.084;6.960;2023-02-01T09:29:47;6.50;99.90
52387;DHT22;38317;53.084;6.960;2023-02-01T09:32:21;6.60;99.90
52387;DHT22;38317;53.084;6.960;2023-02-01T09:34:48;6.60;99.90
52387;DHT22;38317;53.084;6.960;2023-02-01T09:37:14;6.60;99.90
52387;DHT22;38317;53.084;6.960;2023-02-01T09:39:40;6.50;99.90
52387;DHT22;38317;53.084;6.960;2023-02-01T09:47:48;6.50;99.90
52387;DHT22;38317;53.084;6.960;2023-02-01T09:50:22;6.50;99.90
52387;DHT22;38317;53.084;6.960;2023-02-01T09:55:51;6.50;99.90
52387;DHT22;38317;53.084;6.960;2023-02-01T10:01:01;6.50;99.90
52387;DHT22;38317;53.084;6.960;2023-02-01T10:03:29;6.50;99.90
52387;DHT22;38317;53.084;6.960;2023-02-01T10:08:54;6.50;99.90
52387;DHT22;38317;53.084;6.960;2023-02-01T10:14:54;6.40;99.90
52387;DHT22;38317;53.084;6.960;2023-02-01T10:27:50;6.30;99.90
52387;DHT22;38317;53.084;6.960;2023-02-01T10:30:25;6.20;99.90
52387;DHT22;38317;53.084;6.960;2023-02-01T10:33:17;6.20;99.90
52387;DHT22;38317;53.084;6.960;2023-02-01T10:35:45;6.10;99.90
52387;DHT22;38317;53.084;6.960;2023-02-01T10:38:25;6.10;99.90
52387;DHT22;38317;53.084;6.960;2023-02-01T10:40:53;6.10;99.90
52387;DHT22;38317;53.084;6.960;2023-02-01T10:43:20;6.00;99.90
52387;DHT22;38317;53.084;6.960;2023-02-01T10:45:46;6.10;99.90
52387;DHT22;38317;53.084;6.960;2023-02-01T10:48:13;6.10;99.90
52387;DHT22;38317;53.084;6.960;2023-02-01T10:50:54;6.10;99.90
52387;DHT22;38317;53.084;6.960;2023-02-01T10:56:11;6.20;99.90
52387;DHT22;38317;53.084;6.960;2023-02-01T10:58:45;6.30;99.90
52387;DHT22;38317;53.084;6.960;2023-02-01T11:01:20;6.40;99.90
52387;DHT22;38317;53.084;6.960;2023-02-01T11:03:57;6.40;99.90
52387;DHT22;38317;53.084;6.960;2023-02-01T11:06:42;6.40;99.90
52387;DHT22;38317;53.084;6.960;2023-02-01T11:09:16;6.50;99.90
52387;DHT22;38317;53.084;6.960;2023-02-01T11:14:27;6.50;99.90
52387;DHT22;38317;53.084;6.960;2023-02-01T11:17:01;6.50;99.90
52387;DHT22;38317;53.084;6.960;2023-02-01T11:19:27;6.50;99.90
52387;DHT22;38317;53.084;6.960;2023-02-01T11:21:55;6.50;99.90
52387;DHT22;38317;53.084;6.960;2023-02-01T11:24:32;6.40;99.90
52387;DHT22;38317;53.084;6.960;2023-02-01T11:27:02;6.40;99.90
52387;DHT22;38317;53.084;6.960;2023-02-01T11:29:40;6.30;99.90
52387;DHT22;38317;53.084;6.960;2023-02-01T11:32:08;6.30;99.90
52387;DHT22;38317;53.084;6.960;2023-02-01T11:34:44;6.20;99.90
52387;DHT22;38317;53.084;6.960;2023-02-01T11:37:59;6.20;99.90
52387;DHT22;38317;53.084;6.960;2023-02-01T11:43:07;6.20;99.90
52387;DHT22;38317;53.084;6.960;2023-02-01T11:45:33;6.30;99.90
52387;DHT22;38317;53.084;6.960;2023-02-01T11:48:00;6.20;99.90
52387;DHT22;38317;53.084;6.960;2023-02-01T11:56:30;5.90;99.90
52387;DHT22;38317;53.084;6.960;2023-02-01T12:18:50;4.40;99.90
52387;DHT22;38317;53.084;6.960;2023-02-01T12:24:20;4.30;99.90
52387;DHT22;38317;53.084;6.960;2023-02-01T12:43:01;4.30;99.90
52387;DHT22;38317;53.084;6.960;2023-02-01T12:46:06;4.30;99.90
52387;DHT22;38317;53.084;6.960;2023-02-01T12:48:48;4.40;99.90
52387;DHT22;38317;53.084;6.960;2023-02-01T12:54:54;4.70;99.90
52387;DHT22;38317;53.084;6.960;2023-02-01T12:57:27;4.80;99.90
52387;DHT22;38317;53.084;6.960;2023-02-01T13:00:01;5.00;99.90
52387;DHT22;38317;53.084;6.960;2023-02-01T13:03:05;5.30;99.90
52387;DHT22;38317;53.084;6.960;2023-02-01T13:08:25;5.90;99.90
52387;DHT22;38317;53.084;6.960;2023-02-01T13:11:20;6.00;99.90
52387;DHT22;38317;53.084;6.960;2023-02-01T13:13:51;6.10;99.90
52387;DHT22;38317;53.084;6.960;2023-02-01T13:16:40;6.20;99.90
52387;DHT22;38317;53.084;6.960;2023-02-01T13:22:47;6.50;99.90
52387;DHT22;38317;53.084;6.960;2023-02-01T13:25:24;6.50;99.90
52387;DHT22;38317;53.084;6.960;2023-02-01T13:27:54;6.60;99.90
52387;DHT22;38317;53.084;6.960;2023-02-01T13:30:25;6.60;99.90
52387;DHT22;38317;53.084;6.960;2023-02-01T13:33:14;6.70;99.90
52387;DHT22;38317;53.084;6.960;2023-02-01T13:36:00;6.70;99.90
52387;DHT22;38317;53.084;6.960;2023-02-01T13:43:36;6.90;99.90
52387;DHT22;38317;53.084;6.960;2023-02-01T13:46:06;6.90;99.90
52387;DHT22;38317;53.084;6.960;2023-02-01T13:48:47;6.90;99.90
52387;DHT22;38317;53.084;6.960;2023-02-01T13:51:14;6.90;99.90
52387;DHT22;38317;53.084;6.960;2023-02-01T13:53:46;7.00;99.90
52387;DHT22;38317;53.084;6.960;2023-02-01T13:56:20;7.00;99.90
52387;DHT22;38317;53.084;6.960;2023-02-01T13:58:48;7.00;99.90
52387;DHT22;38317;53.084;6.960;2023-02-01T14:03:51;7.00;99.90
52387;DHT22;38317;53.084;6.960;2023-02-01T14:11:43;7.00;99.90
52387;DHT22;38317;53.084;6.960;2023-02-01T14:16:42;7.00;99.90
52387;DHT22;38317;53.084;6.960;2023-02-01T14:19:19;7.00;99.90
52387;DHT22;38317;53.084;6.960;2023-02-01T14:21:51;7.00;99.90
52387;DHT22;38317;53.084;6.960;2023-02-01T14:24:41;7.00;99.90
52387;DHT22;38317;53.084;6.960;2023-02-01T14:29:44;7.20;99.90
52387;DHT22;38317;53.084;6.960;2023-02-01T14:32:24;7.10;99.90
52387;DHT22;38317;53.084;6.960;2023-02-01T14:34:53;7.20;99.90
52387;DHT22;38317;53.084;6.960;2023-02-01T14:42:46;7.10;99.90
52387;DHT22;38317;53.084;6.960;2023-02-01T14:47:48;7.20;99.90
52387;DHT22;38317;53.084;6.960;2023-02-01T14:50:26;7.20;99.90
52387;DHT22;38317;53.084;6.960;2023-02-01T14:55:41;7.20;99.90
52387;DHT22;38317;53.084;6.960;2023-02-01T14:58:16;7.20;99.90
52387;DHT22;38317;53.084;6.960;2023-02-01T15:01:04;7.20;99.90
52387;DHT22;38317;53.084;6.960;2023-02-01T15:06:32;7.20;99.90
52387;DHT22;38317;53.084;6.960;2023-02-01T15:09:17;7.30;99.90
52387;DHT22;38317;53.084;6.960;2023-02-01T15:14:32;7.20;99.90
52387;DHT22;38317;53.084;6.960;2023-02-01T15:16:58;7.20;99.90
52387;DHT22;38317;53.084;6.960;2023-02-01T15:19:26;7.20;99.90
52387;DHT22;38317;53.084;6.960;2023-02-01T15:21:54;7.20;99.90
52387;DHT22;38317;53.084;6.960;2023-02-01T15:24:27;7.20;99.90
52387;DHT22;38317;53.084;6.960;2023-02-01T15:26:55;7.20;99.90
52387;DHT22;38317;53.084;6.960;2023-02-01T15:29:22;7.20;99.90
52387;DHT22;38317;53.084;6.960;2023-02-01T15:31:53;7.20;99.90
52387;DHT22;38317;53.084;6.960;2023-02-01T15:34:20;7.10;99.90
52387;DHT22;38317;53.084;6.960;2023-02-01T15:36:46;7.10;99.90
52387;DHT22;38317;53.084;6.960;2023-02-01T15:39:17;7.10;99.90
52387;DHT22;38317;53.084;6.960;2023-02-01T15:46:57;7.10;99.90
52387;DHT22;38317;53.084;6.960;2023-02-01T15:49:24;8.40;99.90
52387;DHT22;38317;53.084;6.960;2023-02-01T15:51:51;7.00;99.90
52387;DHT22;38317;53.084;6.960;2023-02-01T15:54:38;7.10;99.90
52387;DHT22;38317;53.084;6.960;2023-02-01T15:57:06;7.10;99.90
52387;DHT22;38317;53.084;6.960;2023-02-01T15:59:40;7.10;99.90
52387;DHT22;38317;53.084;6.960;2023-02-01T16:02:28;7.10;99.90
52387;DHT22;38317;53.084;6.960;2023-02-01T16:04:55;7.10;99.90
52387;DHT22;38317;53.084;6.960;2023-02-01T16:07:27;7.10;99.90
52387;DHT22;38317;53.084;6.960;2023-02-01T16:09:56;7.10;99.90
52387;DHT22;38317;53.084;6.960;2023-02-01T16:12:45;7.00;99.90
52387;DHT22;38317;53.084;6.960;2023-02-01T16:15:12;7.00;99.90
52387;DHT22;38317;53.084;6.960;2023-02-01T16:17:38;7.00;99.90
52387;DHT22;38317;53.084;6.960;2023-02-01T16:20:04;7.00;99.90
52387;DHT22;38317;53.084;6.960;2023-02-01T16:22:30;6.90;99.90
52387;DHT22;38317;53.084;6.960;2023-02-01T16:24:56;6.90;99.90
52387;DHT22;38317;53.084;6.960;2023-02-01T16:27:22;6.90;99.90
52387;DHT22;38317;53.084;6.960;2023-02-01T16:29:48;6.90;99.90
52387;DHT22;38317;53.084;6.960;2023-02-01T16:32:19;6.90;99.90
52387;DHT22;38317;53.084;6.960;2023-02-01T16:34:47;6.80;99.90
52387;DHT22;38317;53.084;6.960;2023-02-01T16:37:15;6.90;99.90
52387;DHT22;38317;53.084;6.960;2023-02-01T16:39:42;6.80;99.90
52387;DHT22;38317;53.084;6.960;2023-02-01T16:42:15;6.80;99.90
52387;DHT22;38317;53.084;6.960;2023-02-01T16:44:42;6.70;99.90
52387;DHT22;38317;53.084;6.960;2023-02-01T16:47:17;6.70;99.90
52387;DHT22;38317;53.084;6.960;2023-02-01T16:49:43;6.70;99.90
52387;DHT22;38317;53.084;6.960;2023-02-01T16:52:21;6.60;99.90
52387;DHT22;38317;53.084;6.960;2023-02-01T16:54:48;6.60;99.90
52387;DHT22;38317;53.084;6.960;2023-02-01T16:57:16;6.70;99.90
52387;DHT22;38317;53.084;6.960;2023-02-01T16:59:43;6.60;99.90
52387;DHT22;38317;53.084;6.960;2023-02-01T17:02:14;6.60;99.90
52387;DHT22;38317;53.084;6.960;2023-02-01T17:04:40;6.60;99.90
52387;DHT22;38317;53.084;6.960;2023-02-01T17:07:06;6.60;99.90
52387;DHT22;38317;53.084;6.960;2023-02-01T17:09:36;6.60;99.90
52387;DHT22;38317;53.084;6.960;2023-02-01T17:12:02;6.60;99.90
52387;DHT22;38317;53.084;6.960;2023-02-01T17:14:38;6.60;99.90
52387;DHT22;38317;53.084;6.960;2023-02-01T17:17:07;6.50;99.90
52387;DHT22;38317;53.084;6.960;2023-02-01T17:19:33;6.50;99.90
52387;DHT22;38317;53.084;6.960;2023-02-01T17:21:59;6.50;99.90
52387;DHT22;38317;53.084;6.960;2023-02-01T17:24:27;6.50;99.90
52387;DHT22;38317;53.084;6.960;2023-02-01T17:26:53;6.50;99.90
52387;DHT22;38317;53.084;6.960;2023-02-01T17:29:19;6.50;99.90
52387;DHT22;38317;53.084;6.960;2023-02-01T17:31:52;6.40;99.90
52387;DHT22;38317;53.084;6.960;2023-02-01T17:34:19;6.50;99.90
52387;DHT22;38317;53.084;6.960;2023-02-01T17:36:45;6.40;99.90
52387;DHT22;38317;53.084;6.960;2023-02-01T17:39:12;6.50;99.90
52387;DHT22;38317;53.084;6.960;2023-02-01T17:42:02;6.40;99.90
52387;DHT22;38317;53.084;6.960;2023-02-01T17:44:28;6.50;99.90
52387;DHT22;38317;53.084;6.960;2023-02-01T17:46:53;6.50;99.90
52387;DHT22;38317;53.084;6.960;2023-02-01T17:49:22;6.40;99.90
52387;DHT22;38317;53.084;6.960;2023-02-01T17:51:48;6.40;99.90
52387;DHT22;38317;53.084;6.960;2023-02-01T17:54:15;6.40;99.90
52387;DHT22;38317;53.084;6.960;2023-02-01T17:56:42;6.40;99.90
52387;DHT22;38317;53.084;6.960;2023-02-01T17:59:08;6.40;99.90
52387;DHT22;38317;53.084;6.960;2023-02-01T18:01:36;6.30;99.90
52387;DHT22;38317;53.084;6.960;2023-02-01T18:04:02;6.30;99.90
52387;DHT22;38317;53.084;6.960;2023-02-01T18:06:33;6.40;99.90
52387;DHT22;38317;53.084;6.960;2023-02-01T18:08:59;6.30;99.90
52387;DHT22;38317;53.084;6.960;2023-02-01T18:11:25;6.30;99.90
52387;DHT22;38317;53.084;6.960;2023-02-01T18:13:51;6.30;99.90
52387;DHT22;38317;53.084;6.960;2023-02-01T18:16:24;6.30;99.90
52387;DHT22;38317;53.084;6.960;2023-02-01T18:18:50;6.30;99.90
52387;DHT22;38317;53.084;6.960;2023-02-01T18:21:18;6.30;99.90
52387;DHT22;38317;53.084;6.960;2023-02-01T18:23:44;6.20;99.90
52387;DHT22;38317;53.084;6.960;2023-02-01T18:26:15;6.20;99.90
52387;DHT22;38317;53.084;6.960;2023-02-01T18:28:41;6.20;99.90
52387;DHT22;38317;53.084;6.960;2023-02-01T18:33:45;6.20;99.90
52387;DHT22;38317;53.084;6.960;2023-02-01T18:36:12;6.10;99.90
52387;DHT22;38317;53.084;6.960;2023-02-01T18:38:38;6.10;99.90
52387;DHT22;38317;53.084;6.960;2023-02-01T18:41:04;6.10;99.90
52387;DHT22;38317;53.084;6.960;2023-02-01T18:43:30;6.10;99.90
52387;DHT22;38317;53.084;6.960;2023-02-01T18:45:56;6.10;99.90
52387;DHT22;38317;53.084;6.960;2023-02-01T18:48:22;6.10;99.90
52387;DHT22;38317;53.084;6.960;2023-02-01T18:50:48;6.10;99.90
52387;DHT22;38317;53.084;6.960;2023-02-01T18:53:20;6.10;99.90
52387;DHT22;38317;53.084;6.960;2023-02-01T18:55:48;6.10;99.90
52387;DHT22;38317;53.084;6.960;2023-02-01T18:58:16;6.10;99.90